createdAt,value
2018-10-06T00:02:04.706Z,10.00
2018-10-06T00:04:36.833Z,9.80
2018-10-06T00:07:08.692Z,9.70
2018-10-06T00:09:40.492Z,9.60
2018-10-06T00:12:12.237Z,9.50
2018-10-06T00:14:43.961Z,9.50
2018-10-06T00:17:15.868Z,9.40
2018-10-06T00:19:47.609Z,9.40
2018-10-06T00:22:19.353Z,9.40
2018-10-06T00:24:51.187Z,9.50
2018-10-06T00:27:22.987Z,9.50
2018-10-06T00:29:54.802Z,9.50
2018-10-06T00:32:27.049Z,9.50
2018-10-06T00:34:58.865Z,9.50
2018-10-06T00:37:30.542Z,9.50
2018-10-06T00:40:02.378Z,9.40
2018-10-06T00:42:34.038Z,9.30
2018-10-06T00:45:06.239Z,9.30
2018-10-06T00:47:37.986Z,9.20
2018-10-06T00:50:09.962Z,9.20
2018-10-06T00:52:41.837Z,9.20
2018-10-06T00:55:13.789Z,9.20
2018-10-06T00:57:45.731Z,9.20
2018-10-06T01:00:17.600Z,9.30
2018-10-06T01:02:49.438Z,9.30
2018-10-06T01:05:21.374Z,9.40
2018-10-06T01:07:53.203Z,9.40
2018-10-06T01:10:25.146Z,9.40
2018-10-06T01:12:56.886Z,9.40
2018-10-06T01:15:28.678Z,9.50
2018-10-06T01:18:00.421Z,9.50
2018-10-06T01:20:32.090Z,9.60
2018-10-06T01:23:03.838Z,9.60
2018-10-06T01:25:35.678Z,9.50
2018-10-06T01:28:07.394Z,9.50
2018-10-06T01:30:39.109Z,9.50
2018-10-06T01:33:13.824Z,9.40
2018-10-06T01:35:45.614Z,9.40
2018-10-06T01:38:17.353Z,9.40
2018-10-06T01:40:49.224Z,9.40
2018-10-06T01:43:20.958Z,9.40
2018-10-06T01:45:52.669Z,9.30
2018-10-06T01:48:24.300Z,9.30
2018-10-06T01:50:56.002Z,9.30
2018-10-06T01:53:27.794Z,9.30
2018-10-06T01:55:59.457Z,9.30
2018-10-06T01:58:31.122Z,9.30
2018-10-06T02:01:02.966Z,9.30
2018-10-06T02:03:34.652Z,9.30
2018-10-06T02:06:06.510Z,9.20
2018-10-06T02:08:38.242Z,9.10
2018-10-06T02:11:10.102Z,9.00
2018-10-06T02:13:41.897Z,8.90
2018-10-06T02:16:13.637Z,8.80
2018-10-06T02:18:45.509Z,8.70
2018-10-06T02:21:17.346Z,8.60
2018-10-06T02:23:49.138Z,8.60
2018-10-06T02:26:21.077Z,8.60
2018-10-06T02:28:52.755Z,8.70
2018-10-06T02:31:24.492Z,8.70
2018-10-06T02:33:56.234Z,8.70
2018-10-06T02:36:27.998Z,8.80
2018-10-06T02:38:59.660Z,8.80
2018-10-06T02:41:31.426Z,8.80
2018-10-06T02:44:03.173Z,8.80
2018-10-06T02:46:34.971Z,8.70
2018-10-06T02:49:06.794Z,8.70
2018-10-06T02:51:38.653Z,8.70
2018-10-06T02:54:10.413Z,8.70
2018-10-06T02:56:42.209Z,8.60
2018-10-06T02:59:13.958Z,8.70
2018-10-06T03:01:45.806Z,8.60
2018-10-06T03:04:17.488Z,8.70
2018-10-06T03:06:49.253Z,8.70
2018-10-06T03:09:21.074Z,8.70
2018-10-06T03:11:52.736Z,8.70
2018-10-06T03:14:24.402Z,8.60
2018-10-06T03:16:56.161Z,8.60
2018-10-06T03:19:27.805Z,8.60
2018-10-06T03:21:59.564Z,8.60
2018-10-06T03:24:31.317Z,8.60
2018-10-06T03:27:02.993Z,8.60
2018-10-06T03:29:34.769Z,8.60
2018-10-06T03:32:06.611Z,8.60
2018-10-06T03:34:38.358Z,8.60
2018-10-06T03:37:10.141Z,8.70
2018-10-06T03:39:41.896Z,8.70
2018-10-06T03:42:13.627Z,8.70
2018-10-06T03:44:45.295Z,8.70
2018-10-06T03:47:16.951Z,8.60
2018-10-06T03:49:48.737Z,8.60
2018-10-06T03:52:20.597Z,8.60
2018-10-06T03:54:52.246Z,8.70
2018-10-06T03:57:23.898Z,8.60
2018-10-06T03:59:55.553Z,8.60
2018-10-06T04:02:27.523Z,8.60
2018-10-06T04:04:59.462Z,8.60
2018-10-06T04:07:31.333Z,8.60
2018-10-06T04:10:02.986Z,8.60
2018-10-06T04:12:34.760Z,8.70
2018-10-06T04:15:06.566Z,8.70
2018-10-06T04:17:38.495Z,8.70
2018-10-06T04:20:10.347Z,8.70
2018-10-06T04:22:42.181Z,8.80
2018-10-06T04:25:13.979Z,8.70
2018-10-06T04:27:45.720Z,8.70
2018-10-06T04:30:17.494Z,8.60
2018-10-06T04:32:49.215Z,8.60
2018-10-06T04:35:20.892Z,8.60
2018-10-06T04:37:52.638Z,8.60
2018-10-06T04:40:25.319Z,8.60
2018-10-06T04:42:57.106Z,8.60
2018-10-06T04:45:28.953Z,8.70
2018-10-06T04:48:00.700Z,8.70
2018-10-06T04:50:32.569Z,8.70
2018-10-06T04:53:04.509Z,8.70
2018-10-06T04:55:36.191Z,8.80
2018-10-06T04:58:08.060Z,8.70
2018-10-06T05:00:39.812Z,8.70
2018-10-06T05:03:11.812Z,8.70
2018-10-06T05:05:43.474Z,8.70
2018-10-06T05:08:15.272Z,8.60
2018-10-06T05:10:46.950Z,8.60
2018-10-06T05:13:18.605Z,8.50
2018-10-06T05:15:50.354Z,8.50
2018-10-06T05:18:22.023Z,8.50
2018-10-06T05:20:53.711Z,8.40
2018-10-06T05:23:25.595Z,8.40
2018-10-06T05:25:57.293Z,8.30
2018-10-06T05:28:29.150Z,8.30
2018-10-06T05:31:00.941Z,8.20
2018-10-06T05:33:32.873Z,8.20
2018-10-06T05:36:04.627Z,8.20
2018-10-06T05:38:36.330Z,8.20
2018-10-06T05:41:08.086Z,8.30
2018-10-06T05:43:39.910Z,8.30
2018-10-06T05:46:11.604Z,8.30
2018-10-06T05:48:43.334Z,8.30
2018-10-06T05:51:15.081Z,8.30
2018-10-06T05:53:46.737Z,8.30
2018-10-06T05:56:18.407Z,8.30
2018-10-06T05:58:50.152Z,8.40
2018-10-06T06:01:21.826Z,8.40
2018-10-06T06:03:53.722Z,8.60
2018-10-06T06:06:25.572Z,8.60
2018-10-06T06:08:57.386Z,8.60
2018-10-06T06:11:29.060Z,8.60
2018-10-06T06:14:00.796Z,8.50
2018-10-06T06:16:32.669Z,8.50
2018-10-06T06:19:04.460Z,8.60
2018-10-06T06:21:36.198Z,8.70
2018-10-06T06:24:07.955Z,8.70
2018-10-06T06:26:39.745Z,8.90
2018-10-06T06:29:11.473Z,9.00
2018-10-06T06:31:43.357Z,9.10
2018-10-06T06:34:15.106Z,9.20
2018-10-06T06:36:46.768Z,9.20
2018-10-06T06:39:18.705Z,9.40
2018-10-06T06:41:50.598Z,9.50
2018-10-06T06:44:22.592Z,9.70
2018-10-06T06:46:54.180Z,9.80
2018-10-06T06:49:25.942Z,9.90
2018-10-06T06:51:57.696Z,10.10
2018-10-06T06:54:29.495Z,10.30
2018-10-06T06:57:01.246Z,10.40
2018-10-06T06:59:33.209Z,10.60
2018-10-06T07:02:04.984Z,10.80
2018-10-06T07:04:36.716Z,11.00
2018-10-06T07:07:08.461Z,11.20
2018-10-06T07:09:40.127Z,11.50
2018-10-06T07:12:11.786Z,11.70
2018-10-06T07:14:43.645Z,11.80
2018-10-06T07:17:15.431Z,12.10
2018-10-06T07:19:47.160Z,12.30
2018-10-06T07:22:18.914Z,12.50
2018-10-06T07:24:50.587Z,12.70
2018-10-06T07:27:22.270Z,12.90
2018-10-06T07:29:54.225Z,13.20
2018-10-06T07:32:25.955Z,13.50
2018-10-06T07:34:57.620Z,13.80
2018-10-06T07:37:29.518Z,14.00
2018-10-06T07:40:01.355Z,14.30
2018-10-06T07:42:33.221Z,14.50
2018-10-06T07:45:05.125Z,14.60
2018-10-06T07:47:36.909Z,14.80
2018-10-06T07:50:08.593Z,15.00
2018-10-06T07:52:40.425Z,15.10
2018-10-06T07:55:12.218Z,15.20
2018-10-06T07:57:43.997Z,15.30
2018-10-06T08:00:15.922Z,15.40
2018-10-06T08:02:47.938Z,15.50
2018-10-06T08:05:19.727Z,15.60
2018-10-06T08:07:51.470Z,15.70
2018-10-06T08:10:23.354Z,15.90
2018-10-06T08:12:55.056Z,16.00
2018-10-06T08:15:26.789Z,16.10
2018-10-06T08:17:58.634Z,16.10
2018-10-06T08:20:30.303Z,16.10
2018-10-06T08:23:02.071Z,16.00
2018-10-06T08:25:33.910Z,16.00
2018-10-06T08:28:05.565Z,16.00
2018-10-06T08:30:37.337Z,15.90
2018-10-06T08:33:09.086Z,15.90
2018-10-06T08:35:40.748Z,15.80
2018-10-06T08:38:12.522Z,15.80
2018-10-06T08:40:44.366Z,15.80
2018-10-06T08:43:16.051Z,15.80
2018-10-06T08:45:47.907Z,15.80
2018-10-06T08:48:19.746Z,15.80
2018-10-06T08:50:51.516Z,15.70
2018-10-06T08:53:23.292Z,15.70
2018-10-06T08:55:55.198Z,15.80
2018-10-06T08:58:27.215Z,15.80
2018-10-06T09:00:58.970Z,15.90
2018-10-06T09:03:30.734Z,15.90
2018-10-06T09:06:02.677Z,16.00
2018-10-06T09:08:34.425Z,16.00
2018-10-06T09:11:06.101Z,16.10
2018-10-06T09:13:37.848Z,16.20
2018-10-06T09:16:10.078Z,16.30
2018-10-06T09:18:41.906Z,16.40
2018-10-06T09:21:13.652Z,16.50
2018-10-06T09:23:45.404Z,16.60
2018-10-06T09:26:17.070Z,16.80
2018-10-06T09:28:48.825Z,17.20
2018-10-06T09:31:20.664Z,17.70
2018-10-06T09:33:52.461Z,18.80
2018-10-06T09:36:24.194Z,20.70
2018-10-06T09:38:55.974Z,23.30
2018-10-06T09:41:27.719Z,25.30
2018-10-06T09:43:59.603Z,26.90
2018-10-06T09:46:31.449Z,28.00
2018-10-06T09:49:03.202Z,28.10
2018-10-06T09:51:34.974Z,27.50
2018-10-06T09:54:06.736Z,26.40
2018-10-06T09:56:38.559Z,25.40
2018-10-06T09:59:10.229Z,24.70
2018-10-06T10:01:46.930Z,24.20
2018-10-06T10:04:19.302Z,23.50
2018-10-06T10:06:51.084Z,23.30
2018-10-06T10:09:22.991Z,23.30
2018-10-06T10:11:54.779Z,23.30
2018-10-06T10:14:26.847Z,23.40
2018-10-06T10:16:58.840Z,23.70
2018-10-06T10:19:30.569Z,23.80
2018-10-06T10:22:02.385Z,23.80
2018-10-06T10:24:34.066Z,23.80
2018-10-06T10:27:05.833Z,23.80
2018-10-06T10:29:37.576Z,23.70
2018-10-06T10:32:09.371Z,23.80
2018-10-06T10:34:41.111Z,24.00
2018-10-06T10:37:12.899Z,24.10
2018-10-06T10:39:44.642Z,24.30
2018-10-06T10:42:16.493Z,24.40
2018-10-06T10:44:48.343Z,24.60
2018-10-06T10:47:20.228Z,24.90
2018-10-06T10:49:52.200Z,25.20
2018-10-06T10:52:23.933Z,25.50
2018-10-06T10:54:55.738Z,25.90
2018-10-06T10:57:27.530Z,26.10
2018-10-06T10:59:59.277Z,25.80
2018-10-06T11:02:31.074Z,25.30
2018-10-06T11:05:02.822Z,25.10
2018-10-06T11:07:34.491Z,25.20
2018-10-06T11:10:06.673Z,24.90
2018-10-06T11:12:38.502Z,24.70
2018-10-06T11:15:10.240Z,24.70
2018-10-06T11:17:42.050Z,24.60
2018-10-06T11:20:13.747Z,24.50
2018-10-06T11:22:45.426Z,24.60
2018-10-06T11:25:17.178Z,24.90
2018-10-06T11:27:48.987Z,25.30
2018-10-06T11:30:20.783Z,25.70
2018-10-06T11:32:52.494Z,26.20
2018-10-06T11:35:24.345Z,26.40
2018-10-06T11:37:56.184Z,26.70
2018-10-06T11:40:27.972Z,26.70
2018-10-06T11:42:59.902Z,26.80
2018-10-06T11:45:31.884Z,27.00
2018-10-06T11:48:03.655Z,27.20
2018-10-06T11:50:35.302Z,27.40
2018-10-06T11:53:07.142Z,27.60
2018-10-06T11:55:39.027Z,27.60
2018-10-06T11:58:10.677Z,27.40
2018-10-06T12:00:42.546Z,27.30
2018-10-06T12:03:14.395Z,27.20
2018-10-06T12:05:46.113Z,27.20
2018-10-06T12:08:17.938Z,27.00
2018-10-06T12:10:49.906Z,26.70
2018-10-06T12:13:21.737Z,26.70
2018-10-06T12:15:53.492Z,26.80
2018-10-06T12:18:25.056Z,26.70
2018-10-06T12:20:56.834Z,26.50
2018-10-06T12:23:28.593Z,26.30
2018-10-06T12:26:00.607Z,26.30
2018-10-06T12:28:32.321Z,26.40
2018-10-06T12:31:04.158Z,26.40
2018-10-06T12:33:35.912Z,26.30
2018-10-06T12:36:07.790Z,26.10
2018-10-06T12:38:39.754Z,26.00
2018-10-06T12:41:11.513Z,26.10
2018-10-06T12:43:43.287Z,25.90
2018-10-06T12:46:15.040Z,25.80
2018-10-06T12:48:46.889Z,25.70
2018-10-06T12:51:18.662Z,25.80
2018-10-06T12:53:50.514Z,26.00
2018-10-06T12:56:22.357Z,26.10
2018-10-06T12:58:54.158Z,26.10
2018-10-06T13:01:25.971Z,26.00
2018-10-06T13:03:57.742Z,25.80
2018-10-06T13:06:29.534Z,25.50
2018-10-06T13:09:01.354Z,25.00
2018-10-06T13:11:33.009Z,24.70
2018-10-06T13:14:04.693Z,24.50
2018-10-06T13:16:36.590Z,24.20
2018-10-06T13:19:08.525Z,23.90
2018-10-06T13:21:40.279Z,23.60
2018-10-06T13:24:12.212Z,23.50
2018-10-06T13:26:43.881Z,23.50
2018-10-06T13:29:15.550Z,23.60
2018-10-06T13:31:47.434Z,23.80
2018-10-06T13:34:19.149Z,23.80
2018-10-06T13:36:50.827Z,23.80
2018-10-06T13:39:22.699Z,23.80
2018-10-06T13:41:54.537Z,23.80
2018-10-06T13:44:26.442Z,23.70
2018-10-06T13:46:58.247Z,23.60
2018-10-06T13:49:30.041Z,23.60
2018-10-06T13:52:01.795Z,23.50
2018-10-06T13:54:33.663Z,23.40
2018-10-06T13:57:05.609Z,23.40
2018-10-06T13:59:37.478Z,23.60
2018-10-06T14:02:09.334Z,24.00
2018-10-06T14:04:41.314Z,24.20
2018-10-06T14:07:13.165Z,24.10
2018-10-06T14:09:45.117Z,24.00
2018-10-06T14:12:16.865Z,23.80
2018-10-06T14:14:48.532Z,23.70
2018-10-06T14:17:20.274Z,23.80
2018-10-06T14:19:52.051Z,24.10
2018-10-06T14:22:23.716Z,24.20
2018-10-06T14:24:55.470Z,24.20
2018-10-06T14:27:27.130Z,24.00
2018-10-06T14:29:58.772Z,23.90
2018-10-06T14:32:30.554Z,23.90
2018-10-06T14:35:02.419Z,23.70
2018-10-06T14:37:34.395Z,23.50
2018-10-06T14:40:06.449Z,23.40
2018-10-06T14:42:38.206Z,23.30
2018-10-06T14:45:10.166Z,23.20
2018-10-06T14:47:42.136Z,23.10
2018-10-06T14:50:13.853Z,23.00
2018-10-06T14:52:45.627Z,22.90
2018-10-06T14:55:17.478Z,22.80
2018-10-06T14:57:49.145Z,22.70
2018-10-06T15:00:20.938Z,22.60
2018-10-06T15:02:52.862Z,22.50
2018-10-06T15:05:24.714Z,22.50
2018-10-06T15:07:56.386Z,22.40
2018-10-06T15:10:28.056Z,22.40
2018-10-06T15:12:59.928Z,22.30
2018-10-06T15:15:31.665Z,22.20
2018-10-06T15:18:03.317Z,22.20
2018-10-06T15:20:35.069Z,22.10
2018-10-06T15:23:06.937Z,22.10
2018-10-06T15:25:38.602Z,22.00
2018-10-06T15:28:10.424Z,22.00
2018-10-06T15:30:42.208Z,21.90
2018-10-06T15:33:13.980Z,21.80
2018-10-06T15:35:45.746Z,21.80
2018-10-06T15:38:17.489Z,21.70
2018-10-06T15:40:49.271Z,21.70
2018-10-06T15:43:21.242Z,21.60
2018-10-06T15:45:52.989Z,21.50
2018-10-06T15:48:24.964Z,21.40
2018-10-06T15:50:56.822Z,21.40
2018-10-06T15:53:28.688Z,21.30
2018-10-06T15:56:00.548Z,21.20
2018-10-06T15:58:32.304Z,21.20
2018-10-06T16:01:04.197Z,21.10
2018-10-06T16:03:35.888Z,21.00
2018-10-06T16:06:07.683Z,20.90
2018-10-06T16:08:39.725Z,20.80
2018-10-06T16:11:11.389Z,20.80
2018-10-06T16:13:43.158Z,20.60
2018-10-06T16:16:15.000Z,20.50
2018-10-06T16:18:46.889Z,20.40
2018-10-06T16:21:18.739Z,20.30
2018-10-06T16:23:50.577Z,20.20
2018-10-06T16:26:22.371Z,20.10
2018-10-06T16:28:54.131Z,20.00
2018-10-06T16:31:25.968Z,19.90
2018-10-06T16:33:57.817Z,19.90
2018-10-06T16:36:29.488Z,19.80
2018-10-06T16:39:01.174Z,19.80
2018-10-06T16:41:32.997Z,19.80
2018-10-06T16:44:05.262Z,19.70
2018-10-06T16:46:37.264Z,19.60
2018-10-06T16:49:09.155Z,19.50
2018-10-06T16:51:40.947Z,19.50
2018-10-06T16:54:12.628Z,19.40
2018-10-06T16:56:44.269Z,19.40
2018-10-06T16:59:15.938Z,19.30
2018-10-06T17:01:47.875Z,19.30
2018-10-06T17:04:19.674Z,19.30
2018-10-06T17:06:51.545Z,19.30
2018-10-06T17:09:23.370Z,19.30
2018-10-06T17:11:55.137Z,19.30
2018-10-06T17:14:26.916Z,19.20
2018-10-06T17:16:58.761Z,19.20
2018-10-06T17:19:30.502Z,19.20
2018-10-06T17:22:02.177Z,19.20
2018-10-06T17:24:33.832Z,19.10
2018-10-06T17:27:05.551Z,19.00
2018-10-06T17:29:37.356Z,19.00
2018-10-06T17:32:09.097Z,19.00
2018-10-06T17:34:40.753Z,19.00
2018-10-06T17:37:12.454Z,18.90
2018-10-06T17:39:44.505Z,18.90
2018-10-06T17:42:16.377Z,18.80
2018-10-06T17:44:48.281Z,18.70
2018-10-06T17:47:20.070Z,18.70
2018-10-06T17:49:51.938Z,18.70
2018-10-06T17:52:23.813Z,18.60
2018-10-06T17:54:55.564Z,18.60
2018-10-06T17:57:27.575Z,18.50
2018-10-06T17:59:59.963Z,18.50
2018-10-06T18:02:31.955Z,18.40
2018-10-06T18:05:03.955Z,18.20
2018-10-06T18:07:35.695Z,18.10
2018-10-06T18:10:07.835Z,18.00
2018-10-06T18:12:39.597Z,17.90
2018-10-06T18:15:11.385Z,17.80
2018-10-06T18:17:43.226Z,17.70
2018-10-06T18:20:15.166Z,17.70
2018-10-06T18:22:47.040Z,17.60
2018-10-06T18:25:18.727Z,17.60
2018-10-06T18:27:59.240Z,17.50
2018-10-06T18:30:32.687Z,17.40
2018-10-06T18:33:04.439Z,17.30
2018-10-06T18:35:42.532Z,17.30
2018-10-06T18:38:14.287Z,17.20
2018-10-06T18:40:45.953Z,17.10
2018-10-06T18:43:17.740Z,17.10
2018-10-06T18:45:49.462Z,17.00
2018-10-06T18:48:21.242Z,17.00
2018-10-06T18:50:53.092Z,17.00
2018-10-06T18:53:24.864Z,17.00
2018-10-06T18:55:56.626Z,16.90
2018-10-06T18:58:28.465Z,16.90
2018-10-06T19:01:00.335Z,16.90
2018-10-06T19:03:32.138Z,16.90
2018-10-06T19:06:04.013Z,16.90
2018-10-06T19:08:35.902Z,16.80
2018-10-06T19:11:07.596Z,16.80
2018-10-06T19:13:39.417Z,16.70
2018-10-06T19:16:11.137Z,16.70
2018-10-06T19:18:43.052Z,16.60
2018-10-06T19:21:15.277Z,16.50
2018-10-06T19:23:47.314Z,16.40
2018-10-06T19:26:32.009Z,16.40
2018-10-06T19:29:15.729Z,16.30
2018-10-06T19:32:01.817Z,16.30
2018-10-06T19:34:51.925Z,16.20
2018-10-06T19:37:41.320Z,16.20
2018-10-06T19:40:27.875Z,16.10
2018-10-06T19:43:12.712Z,16.10
2018-10-06T19:45:59.788Z,16.10
2018-10-06T19:48:45.812Z,16.10
2018-10-06T19:51:33.283Z,16.10
2018-10-06T19:54:23.053Z,16.20
2018-10-06T19:57:12.354Z,16.20
2018-10-06T20:03:06.420Z,16.30
2018-10-06T20:05:57.056Z,16.30
2018-10-06T20:08:46.551Z,16.40
2018-10-06T20:11:36.675Z,16.40
2018-10-06T20:14:17.526Z,16.40
2018-10-06T20:16:58.886Z,16.40
2018-10-06T20:19:39.622Z,16.30
2018-10-06T20:22:14.482Z,16.30
2018-10-06T20:24:50.386Z,16.30
2018-10-06T20:27:26.197Z,16.30
2018-10-06T20:30:00.588Z,16.30
2018-10-06T20:32:34.627Z,16.30
2018-10-06T20:35:08.662Z,16.30
2018-10-06T20:37:44.315Z,16.20
2018-10-06T20:40:20.221Z,16.20
2018-10-06T20:42:54.163Z,16.20
2018-10-06T20:45:28.915Z,16.20
2018-10-06T20:48:03.104Z,16.20
2018-10-06T20:50:38.778Z,16.20
2018-10-06T20:53:14.096Z,16.10
2018-10-06T20:55:50.452Z,16.10
2018-10-06T20:58:28.758Z,16.10
2018-10-06T21:01:04.828Z,16.20
2018-10-06T21:03:40.250Z,16.20
2018-10-06T21:06:15.204Z,16.10
2018-10-06T21:08:50.573Z,16.10
2018-10-06T21:11:26.324Z,16.10
2018-10-06T21:14:02.508Z,16.10
2018-10-06T21:16:38.764Z,16.10
2018-10-06T21:19:13.850Z,16.10
2018-10-06T21:21:49.756Z,16.00
2018-10-06T21:24:23.731Z,15.90
2018-10-06T21:26:57.896Z,15.90
2018-10-06T21:29:33.220Z,15.80
2018-10-06T21:32:10.418Z,15.70
2018-10-06T21:34:46.188Z,15.60
2018-10-06T21:37:21.733Z,15.50
2018-10-06T21:39:56.835Z,15.40
2018-10-06T21:42:32.632Z,15.40
2018-10-06T21:45:08.827Z,15.30
2018-10-06T21:47:44.942Z,15.20
2018-10-06T21:50:19.876Z,15.20
2018-10-06T21:52:52.140Z,15.10
2018-10-06T21:55:23.805Z,15.00
2018-10-06T21:57:55.575Z,15.00
2018-10-06T22:00:27.733Z,15.00
2018-10-06T22:02:59.516Z,14.90
2018-10-06T22:05:31.264Z,14.90
2018-10-06T22:08:03.110Z,14.80
2018-10-06T22:10:34.901Z,14.80
2018-10-06T22:13:06.538Z,14.70
2018-10-06T22:15:38.474Z,14.70
2018-10-06T22:18:09.966Z,14.60
2018-10-06T22:20:41.940Z,14.60
2018-10-06T22:23:13.864Z,14.50
2018-10-06T22:25:46.065Z,14.50
2018-10-06T22:28:17.897Z,14.40
2018-10-06T22:30:49.691Z,14.40
2018-10-06T22:33:21.542Z,14.30
2018-10-06T22:35:53.321Z,14.20
2018-10-06T22:38:24.946Z,14.20
2018-10-06T22:40:56.596Z,14.10
2018-10-06T22:43:28.575Z,14.10
2018-10-06T22:46:00.250Z,14.00
2018-10-06T22:48:31.989Z,14.10
2018-10-06T22:51:04.064Z,14.10
2018-10-06T22:53:36.032Z,14.00
2018-10-06T22:56:07.878Z,14.00
2018-10-06T22:58:39.609Z,13.90
2018-10-06T23:01:11.308Z,13.80
2018-10-06T23:03:43.159Z,13.80
2018-10-06T23:06:15.106Z,13.70
2018-10-06T23:08:46.889Z,13.60
2018-10-06T23:11:18.580Z,13.60
2018-10-06T23:13:50.407Z,13.60
2018-10-06T23:16:22.065Z,13.50
2018-10-06T23:18:53.712Z,13.60
2018-10-06T23:21:25.583Z,13.50
2018-10-06T23:23:57.326Z,13.50
2018-10-06T23:26:29.173Z,13.50
2018-10-06T23:29:00.957Z,13.50
2018-10-06T23:31:32.605Z,13.50
2018-10-06T23:34:04.477Z,13.50
2018-10-06T23:36:36.114Z,13.50
2018-10-06T23:39:08.481Z,13.50
2018-10-06T23:41:40.155Z,13.50
2018-10-06T23:44:11.895Z,13.60
2018-10-06T23:46:43.673Z,13.50
2018-10-06T23:49:15.414Z,13.50
2018-10-06T23:51:47.196Z,13.60
2018-10-06T23:54:18.837Z,13.60
2018-10-06T23:56:50.715Z,13.60
2018-10-06T23:59:22.146Z,13.60
